SVA20 KJFK-OEJN
Flight info
| Callsign | SVA20 |
|---|---|
| Flight time | N/A |
| Altitude | 33000 |
| Route | BETTE DCT ACK DCT TUSKY N355C JOOPY/M083F350 NATV BEXET/N0467F350 DCT DIRUM DCT MORAG DCT NUCHU/N0475F370 L607 BIG L15 MOTOX DCT RUCAC DCT LESDO DCT ETINO DCT DEVDI DCT RIPUS DCT RESIA DCT LABIN DCT VAKSU DCT RODON DCT DIMIS DCT SALUN/N0473F390 N705 BOPIX N710 TAKRI P751 LXR M999 MUVOL |
| Aircraft | B77W/H-SDE1E2E3FGHIJ2J3J4J5M1RWXY/LB1D1 |
Departure
| Time | 2026-05-04 02:04 |
|---|---|
| Airport | John F. Kennedy International Airport (KJFK) |
Arrival
| Time | N/A |
|---|---|
| Airport | King Abdulaziz International Airport (OEJN) |
| Time | Latitude | Longitude | Altitude | Speed | Heading |
|---|---|---|---|---|---|
| 2026-05-04 01:44 | 40.64117 | -73.79212 | 29 ft | 0 kts | 326° |
| 2026-05-04 01:46 | 40.64109 | -73.79205 | 29 ft | 4 kts | 326° |
| 2026-05-04 01:46 | 40.64087 | -73.79186 | 27 ft | 2 kts | 326° |
| 2026-05-04 01:47 | 40.64070 | -73.79169 | 27 ft | 4 kts | 297° |
| 2026-05-04 01:47 | 40.64069 | -73.79143 | 25 ft | 4 kts | 226° |
| 2026-05-04 01:47 | 40.64063 | -73.79150 | 27 ft | 4 kts | 224° |
| 2026-05-04 01:47 | 40.64044 | -73.79175 | 29 ft | 4 kts | 224° |
| 2026-05-04 01:48 | 40.64033 | -73.79189 | 29 ft | 0 kts | 224° |
| 2026-05-04 01:52 | 40.64031 | -73.79192 | 29 ft | 3 kts | 224° |
| 2026-05-04 01:52 | 40.63994 | -73.79236 | 27 ft | 3 kts | 220° |
| 2026-05-04 01:53 | 40.63959 | -73.79236 | 29 ft | 8 kts | 147° |
| 2026-05-04 01:53 | 40.63925 | -73.79177 | 30 ft | 9 kts | 122° |
| 2026-05-04 01:53 | 40.63895 | -73.79110 | 27 ft | 9 kts | 119° |
| 2026-05-04 01:53 | 40.63864 | -73.79043 | 28 ft | 9 kts | 122° |
| 2026-05-04 01:54 | 40.63834 | -73.78976 | 28 ft | 9 kts | 120° |
| 2026-05-04 01:54 | 40.63805 | -73.78907 | 30 ft | 9 kts | 117° |
| 2026-05-04 01:54 | 40.63775 | -73.78840 | 32 ft | 9 kts | 123° |
| 2026-05-04 01:54 | 40.63725 | -73.78737 | 34 ft | 15 kts | 122° |
| 2026-05-04 01:55 | 40.63670 | -73.78615 | 33 ft | 16 kts | 120° |
| 2026-05-04 01:55 | 40.63614 | -73.78493 | 34 ft | 16 kts | 121° |
| 2026-05-04 01:55 | 40.63559 | -73.78371 | 32 ft | 16 kts | 121° |
| 2026-05-04 01:55 | 40.63503 | -73.78248 | 30 ft | 16 kts | 121° |
| 2026-05-04 01:56 | 40.63448 | -73.78126 | 30 ft | 16 kts | 120° |
| 2026-05-04 01:56 | 40.63406 | -73.77996 | 28 ft | 16 kts | 91° |
| 2026-05-04 01:56 | 40.63454 | -73.77873 | 29 ft | 16 kts | 42° |
| 2026-05-04 01:56 | 40.63546 | -73.77799 | 32 ft | 16 kts | 26° |
| 2026-05-04 01:57 | 40.63639 | -73.77727 | 27 ft | 16 kts | 36° |
| 2026-05-04 01:57 | 40.63731 | -73.77652 | 28 ft | 16 kts | 30° |
| 2026-05-04 01:57 | 40.63825 | -73.77580 | 27 ft | 16 kts | 31° |
| 2026-05-04 01:57 | 40.63917 | -73.77506 | 28 ft | 16 kts | 31° |
| 2026-05-04 01:58 | 40.64010 | -73.77433 | 27 ft | 14 kts | 33° |
| 2026-05-04 01:58 | 40.64014 | -73.77337 | 26 ft | 12 kts | 125° |
| 2026-05-04 01:58 | 40.63965 | -73.77248 | 31 ft | 12 kts | 126° |
| 2026-05-04 01:58 | 40.63915 | -73.77161 | 28 ft | 12 kts | 127° |
| 2026-05-04 01:59 | 40.63864 | -73.77074 | 30 ft | 12 kts | 128° |
| 2026-05-04 01:59 | 40.63813 | -73.76988 | 30 ft | 12 kts | 128° |
| 2026-05-04 01:59 | 40.63753 | -73.76916 | 30 ft | 12 kts | 161° |
| 2026-05-04 01:59 | 40.63669 | -73.76915 | 31 ft | 12 kts | 180° |
| 2026-05-04 02:00 | 40.63586 | -73.76917 | 30 ft | 12 kts | 182° |
| 2026-05-04 02:00 | 40.63502 | -73.76921 | 29 ft | 12 kts | 182° |
| 2026-05-04 02:00 | 40.63419 | -73.76934 | 27 ft | 12 kts | 187° |
| 2026-05-04 02:00 | 40.63335 | -73.76945 | 30 ft | 12 kts | 184° |
| 2026-05-04 02:01 | 40.63251 | -73.76947 | 27 ft | 12 kts | 181° |
| 2026-05-04 02:01 | 40.63167 | -73.76952 | 27 ft | 12 kts | 186° |
| 2026-05-04 02:01 | 40.63086 | -73.76979 | 29 ft | 12 kts | 204° |
| 2026-05-04 02:01 | 40.63012 | -73.77034 | 27 ft | 12 kts | 211° |
| 2026-05-04 02:02 | 40.62940 | -73.77092 | 28 ft | 12 kts | 211° |
| 2026-05-04 02:02 | 40.62868 | -73.77149 | 29 ft | 12 kts | 211° |
| 2026-05-04 02:02 | 40.62819 | -73.77215 | 28 ft | 10 kts | 272° |
| 2026-05-04 02:02 | 40.62838 | -73.77261 | 29 ft | 0 kts | 301° |
| 2026-05-04 02:03 | 40.62839 | -73.77264 | 29 ft | 4 kts | 301° |
| 2026-05-04 02:03 | 40.62911 | -73.77422 | 32 ft | 46 kts | 301° |
| 2026-05-04 02:04 | 40.63194 | -73.78052 | 31 ft | 112 kts | 301° |
| 2026-05-04 02:04 | 40.63695 | -73.79155 | 27 ft | 166 kts | 301° |
| 2026-05-04 02:04 | 40.64341 | -73.80594 | 176 ft | 190 kts | 301° |
| 2026-05-04 02:04 | 40.65050 | -73.82033 | 749 ft | 188 kts | 301° |
| 2026-05-04 02:05 | 40.65658 | -73.83527 | 1361 ft | 180 kts | 280° |
| 2026-05-04 02:05 | 40.65477 | -73.85125 | 1760 ft | 186 kts | 244° |
| 2026-05-04 02:05 | 40.64440 | -73.86342 | 1763 ft | 221 kts | 203° |
| 2026-05-04 02:05 | 40.62854 | -73.86579 | 1980 ft | 245 kts | 175° |
| 2026-05-04 02:06 | 40.61746 | -73.86133 | 2150 ft | 262 kts | 155° |
| 2026-05-04 02:06 | 40.60047 | -73.83787 | 2650 ft | 282 kts | 113° |
| 2026-05-04 02:06 | 40.59640 | -73.81276 | 3229 ft | 282 kts | 87° |
| 2026-05-04 02:06 | 40.59667 | -73.78712 | 3879 ft | 283 kts | 89° |
| 2026-05-04 02:07 | 40.59632 | -73.76969 | 4375 ft | 283 kts | 90° |
| 2026-05-04 02:07 | 40.59535 | -73.74352 | 4948 ft | 289 kts | 91° |
| 2026-05-04 02:07 | 40.59417 | -73.71687 | 4993 ft | 294 kts | 91° |
| 2026-05-04 02:07 | 40.59291 | -73.68997 | 5070 ft | 295 kts | 91° |
| 2026-05-04 02:08 | 40.59161 | -73.66303 | 5718 ft | 295 kts | 91° |
| 2026-05-04 02:08 | 40.59032 | -73.63646 | 6443 ft | 296 kts | 91° |
| 2026-05-04 02:08 | 40.58901 | -73.60938 | 7093 ft | 298 kts | 90° |
| 2026-05-04 02:08 | 40.58769 | -73.58205 | 7695 ft | 300 kts | 90° |
| 2026-05-04 02:09 | 40.58636 | -73.55453 | 8356 ft | 303 kts | 89° |
| 2026-05-04 02:09 | 40.58502 | -73.52678 | 9002 ft | 305 kts | 89° |
| 2026-05-04 02:09 | 40.58367 | -73.49874 | 9563 ft | 311 kts | 88° |
| 2026-05-04 02:09 | 40.58229 | -73.47022 | 10158 ft | 313 kts | 88° |
| 2026-05-04 02:10 | 40.58088 | -73.44107 | 10452 ft | 329 kts | 89° |
| 2026-05-04 02:10 | 40.57941 | -73.41009 | 10618 ft | 349 kts | 89° |
| 2026-05-04 02:10 | 40.57782 | -73.37722 | 10789 ft | 370 kts | 89° |